createdAt,value
2023-02-26T00:01:28.608Z,73.08
2023-02-26T00:03:58.006Z,72.30
2023-02-26T00:06:26.386Z,72.60
2023-02-26T00:08:54.146Z,72.87
2023-02-26T00:11:21.874Z,72.92
2023-02-26T00:13:49.301Z,72.90
2023-02-26T00:16:27.909Z,72.07
2023-02-26T00:18:59.528Z,72.52
2023-02-26T00:21:27.025Z,72.54
2023-02-26T00:23:53.706Z,72.95
2023-02-26T00:26:20.933Z,72.65
2023-02-26T00:28:47.858Z,72.98
2023-02-26T00:31:15.582Z,72.91
2023-02-26T00:33:42.777Z,72.81
2023-02-26T00:36:21.628Z,72.50
2023-02-26T00:38:56.401Z,72.13
2023-02-26T00:41:23.201Z,72.82
2023-02-26T00:43:49.936Z,73.19
2023-02-26T00:46:36.907Z,72.47
2023-02-26T00:49:18.105Z,71.91
2023-02-26T00:51:58.286Z,72.61
2023-02-26T00:54:29.998Z,72.36
2023-02-26T00:56:58.541Z,73.17
2023-02-26T00:59:25.736Z,73.43
2023-02-26T01:01:53.071Z,73.79
2023-02-26T01:04:23.298Z,73.40
2023-02-26T01:06:53.498Z,73.63
2023-02-26T01:09:26.414Z,72.88
2023-02-26T01:11:55.410Z,73.47
2023-02-26T01:14:23.204Z,73.19
2023-02-26T01:17:27.040Z,72.22
2023-02-26T01:19:59.824Z,73.30
2023-02-26T01:22:55.784Z,72.74
2023-02-26T01:25:30.254Z,72.71
2023-02-26T01:27:56.979Z,72.43
2023-02-26T01:30:24.268Z,72.37
2023-02-26T01:33:13.937Z,71.52
2023-02-26T01:35:57.589Z,71.67
2023-02-26T01:39:01.754Z,70.75
2023-02-26T01:41:49.842Z,68.68
2023-02-26T01:44:29.856Z,69.61
2023-02-26T01:47:02.346Z,69.31
2023-02-26T01:49:29.769Z,70.14
2023-02-26T01:51:58.883Z,69.47
2023-02-26T01:54:31.080Z,68.06
2023-02-26T01:57:06.461Z,67.67
2023-02-26T01:59:36.761Z,67.93
2023-02-26T02:02:07.934Z,68.84
2023-02-26T02:04:34.820Z,66.90
2023-02-26T02:07:02.114Z,67.17
2023-02-26T02:09:28.746Z,68.21
2023-02-26T02:12:29.086Z,67.30
2023-02-26T02:15:14.628Z,67.40
2023-02-26T02:18:01.594Z,68.10
2023-02-26T02:20:54.642Z,68.49
2023-02-26T02:23:33.208Z,68.95
2023-02-26T02:26:36.674Z,70.17
2023-02-26T02:29:53.504Z,69.96
2023-02-26T02:32:36.290Z,68.99
2023-02-26T02:35:23.436Z,68.46
2023-02-26T02:37:58.650Z,69.12
2023-02-26T02:40:34.094Z,68.57
2023-02-26T02:43:40.918Z,69.30
2023-02-26T02:46:12.311Z,69.44
2023-02-26T02:48:44.238Z,69.46
2023-02-26T02:51:17.082Z,69.70
2023-02-26T02:53:50.492Z,70.12
2023-02-26T02:56:23.716Z,70.50
2023-02-26T02:58:56.504Z,70.50
2023-02-26T03:01:27.686Z,70.74
2023-02-26T03:04:02.885Z,70.20
2023-02-26T03:06:30.812Z,70.70
2023-02-26T03:08:58.747Z,70.49
2023-02-26T03:11:25.279Z,70.11
2023-02-26T03:13:53.730Z,69.75
2023-02-26T03:16:45.450Z,69.65
2023-02-26T03:19:22.744Z,69.39
2023-02-26T03:22:17.206Z,69.37
2023-02-26T03:25:04.630Z,68.59
2023-02-26T03:27:35.919Z,67.90
2023-02-26T03:30:14.223Z,66.48
2023-02-26T03:33:01.394Z,66.28
2023-02-26T03:35:28.266Z,66.87
2023-02-26T03:38:00.725Z,67.23
2023-02-26T03:40:32.395Z,67.08
2023-02-26T03:43:06.403Z,67.18
2023-02-26T03:45:35.787Z,68.03
2023-02-26T03:48:07.878Z,67.77
2023-02-26T03:50:45.979Z,67.18
2023-02-26T03:53:43.652Z,68.01
2023-02-26T03:56:21.661Z,68.62
2023-02-26T03:59:23.791Z,68.52
2023-02-26T04:02:20.735Z,67.78
2023-02-26T04:04:55.982Z,67.76
2023-02-26T04:07:23.184Z,67.42
2023-02-26T04:09:51.790Z,67.24
2023-02-26T04:12:25.391Z,67.06
2023-02-26T04:14:55.418Z,67.55
2023-02-26T04:17:22.203Z,67.28
2023-02-26T04:19:49.050Z,66.54
2023-02-26T04:22:16.303Z,66.77
2023-02-26T04:24:42.892Z,66.90
2023-02-26T04:27:10.003Z,67.25
2023-02-26T04:29:36.672Z,66.79
2023-02-26T04:32:03.536Z,66.94
2023-02-26T04:34:30.216Z,66.98
2023-02-26T04:36:56.870Z,67.13
2023-02-26T04:39:23.507Z,67.35
2023-02-26T04:41:50.537Z,67.00
2023-02-26T04:44:17.293Z,66.57
2023-02-26T04:46:44.024Z,66.39
2023-02-26T04:49:10.709Z,65.79
2023-02-26T04:51:41.020Z,65.65
2023-02-26T04:54:08.411Z,65.73
2023-02-26T04:56:35.377Z,65.37
2023-02-26T04:59:03.406Z,65.13
2023-02-26T05:01:31.466Z,64.95
2023-02-26T05:03:58.985Z,65.16
2023-02-26T05:06:26.106Z,65.29
2023-02-26T05:08:53.015Z,65.27
2023-02-26T05:11:19.709Z,65.18
2023-02-26T05:13:46.970Z,65.60
2023-02-26T05:16:13.733Z,65.62
2023-02-26T05:18:40.967Z,65.31
2023-02-26T05:21:07.694Z,65.59
2023-02-26T05:23:34.433Z,65.43
2023-02-26T05:26:01.074Z,65.79
2023-02-26T05:28:28.036Z,65.77
2023-02-26T05:30:57.105Z,64.98
2023-02-26T05:33:24.482Z,65.14
2023-02-26T05:35:51.055Z,64.78
2023-02-26T05:38:17.536Z,64.67
2023-02-26T05:40:44.263Z,65.00
2023-02-26T05:43:10.722Z,65.11
2023-02-26T05:45:37.352Z,65.62
2023-02-26T05:48:04.112Z,66.11
2023-02-26T05:50:30.691Z,67.14
2023-02-26T05:52:57.926Z,67.69
2023-02-26T05:55:24.937Z,67.74
2023-02-26T05:57:51.553Z,68.00
2023-02-26T06:00:18.435Z,67.95
2023-02-26T06:02:45.066Z,68.28
2023-02-26T06:05:11.688Z,68.46
2023-02-26T06:07:38.392Z,68.45
2023-02-26T06:10:05.717Z,68.62
2023-02-26T06:12:32.196Z,68.68
2023-02-26T06:14:58.744Z,68.26
2023-02-26T06:17:25.426Z,68.11
2023-02-26T06:19:51.998Z,67.88
2023-02-26T06:22:18.800Z,67.91
2023-02-26T06:24:45.324Z,68.24
2023-02-26T06:27:11.898Z,68.34
2023-02-26T06:29:38.508Z,68.87
2023-02-26T06:32:05.902Z,68.95
2023-02-26T06:34:33.274Z,69.27
2023-02-26T06:37:00.155Z,69.48
2023-02-26T06:39:26.724Z,69.62
2023-02-26T06:41:53.236Z,69.76
2023-02-26T06:44:19.811Z,69.92
2023-02-26T06:46:46.399Z,70.71
2023-02-26T06:49:13.026Z,70.89
2023-02-26T06:51:39.700Z,71.55
2023-02-26T06:54:06.203Z,71.13
2023-02-26T06:56:32.876Z,70.89
2023-02-26T06:58:59.401Z,70.59
2023-02-26T07:01:25.955Z,69.72
2023-02-26T07:03:52.928Z,69.43
2023-02-26T07:06:27.383Z,69.11
2023-02-26T07:08:55.762Z,69.41
2023-02-26T07:11:23.083Z,69.70
2023-02-26T07:13:49.688Z,69.90
2023-02-26T07:16:16.220Z,69.68
2023-02-26T07:18:43.023Z,69.54
2023-02-26T07:21:10.737Z,67.97
2023-02-26T07:23:37.271Z,67.90
2023-02-26T07:26:03.983Z,67.84
2023-02-26T07:28:30.922Z,68.22
2023-02-26T07:30:58.202Z,68.48
2023-02-26T07:33:25.157Z,68.89
2023-02-26T07:35:51.818Z,69.42
2023-02-26T07:38:19.633Z,69.62
2023-02-26T07:40:46.437Z,68.30
2023-02-26T07:43:13.099Z,70.73
2023-02-26T07:45:39.676Z,70.53
2023-02-26T07:48:06.292Z,70.08
2023-02-26T07:50:33.178Z,69.29
2023-02-26T07:52:59.652Z,68.48
2023-02-26T07:55:26.426Z,67.70
2023-02-26T07:57:52.956Z,67.05
2023-02-26T08:00:19.790Z,67.07
2023-02-26T08:02:46.347Z,66.73
2023-02-26T08:05:12.931Z,67.05
2023-02-26T08:07:39.495Z,67.34
2023-02-26T08:10:06.283Z,67.55
2023-02-26T08:12:32.786Z,67.50
2023-02-26T08:14:59.308Z,67.26
2023-02-26T08:17:26.135Z,67.36
2023-02-26T08:19:52.725Z,65.85
2023-02-26T08:22:19.872Z,65.67
2023-02-26T08:24:46.579Z,64.21
2023-02-26T08:27:13.701Z,63.83
2023-02-26T08:29:40.310Z,64.93
2023-02-26T08:32:06.908Z,65.78
2023-02-26T08:34:33.712Z,65.24
2023-02-26T08:37:00.390Z,64.96
2023-02-26T08:39:26.932Z,65.97
2023-02-26T08:41:53.408Z,66.63
2023-02-26T08:44:19.949Z,64.38
2023-02-26T08:46:46.442Z,64.40
2023-02-26T08:49:12.943Z,64.26
2023-02-26T08:51:39.442Z,64.17
2023-02-26T08:54:05.968Z,62.41
2023-02-26T08:56:32.632Z,63.80
2023-02-26T08:58:59.175Z,64.16
2023-02-26T09:01:25.990Z,63.23
2023-02-26T09:03:52.689Z,64.29
2023-02-26T09:06:19.228Z,64.91
2023-02-26T09:08:45.701Z,64.23
2023-02-26T09:11:12.366Z,63.78
2023-02-26T09:13:39.112Z,63.96
2023-02-26T09:16:06.233Z,64.90
2023-02-26T09:18:33.712Z,64.53
2023-02-26T09:21:00.489Z,65.46
2023-02-26T09:23:27.115Z,66.04
2023-02-26T09:25:54.628Z,66.30
2023-02-26T09:28:22.160Z,67.32
2023-02-26T09:30:51.928Z,65.30
2023-02-26T09:33:18.819Z,63.83
2023-02-26T09:35:48.601Z,63.75
2023-02-26T09:38:15.855Z,63.43
2023-02-26T09:40:51.059Z,62.06
2023-02-26T09:43:54.907Z,62.32
2023-02-26T09:46:42.590Z,63.25
2023-02-26T09:49:17.905Z,64.69
2023-02-26T09:51:50.134Z,64.77
2023-02-26T09:54:24.850Z,63.75
2023-02-26T09:56:58.512Z,64.73
2023-02-26T09:59:29.473Z,65.51
2023-02-26T10:02:05.643Z,64.25
2023-02-26T10:04:51.901Z,63.01
2023-02-26T10:07:40.687Z,62.50
2023-02-26T10:10:33.268Z,62.49
2023-02-26T10:13:00.527Z,66.01
2023-02-26T10:15:39.091Z,65.30
2023-02-26T10:18:18.911Z,66.66
2023-02-26T10:21:15.166Z,64.54
2023-02-26T10:23:46.153Z,63.65
2023-02-26T10:26:54.009Z,64.66
2023-02-26T10:29:29.224Z,63.71
2023-02-26T10:31:59.792Z,64.95
2023-02-26T10:34:38.510Z,62.54
2023-02-26T10:37:18.344Z,59.75
2023-02-26T10:39:56.663Z,59.91
2023-02-26T10:42:41.996Z,61.85
2023-02-26T10:45:50.847Z,59.62
2023-02-26T10:48:23.429Z,60.64
2023-02-26T10:50:53.090Z,61.46
2023-02-26T10:53:22.121Z,60.52
2023-02-26T10:55:51.538Z,61.03
2023-02-26T10:58:23.329Z,60.58
2023-02-26T11:00:52.839Z,59.61
2023-02-26T11:03:24.868Z,60.89
2023-02-26T11:05:51.394Z,59.87
2023-02-26T11:08:32.102Z,59.42
2023-02-26T11:11:03.936Z,59.46
2023-02-26T11:13:36.613Z,59.71
2023-02-26T11:16:10.267Z,57.83
2023-02-26T11:18:40.365Z,57.77
2023-02-26T11:21:08.436Z,59.43
2023-02-26T11:23:35.090Z,59.04
2023-02-26T11:26:14.100Z,62.10
2023-02-26T11:28:49.587Z,63.76
2023-02-26T11:31:19.536Z,63.24
2023-02-26T11:33:53.904Z,63.80
2023-02-26T11:36:24.726Z,63.50
2023-02-26T11:39:03.848Z,62.42
2023-02-26T11:41:30.475Z,63.24
2023-02-26T11:44:02.376Z,63.13
2023-02-26T11:46:29.411Z,62.05
2023-02-26T11:49:00.673Z,60.89
2023-02-26T11:51:29.278Z,60.22
2023-02-26T11:53:58.505Z,61.38
2023-02-26T11:56:41.112Z,62.50
2023-02-26T11:59:17.652Z,63.35
2023-02-26T12:01:44.471Z,64.37
2023-02-26T12:04:13.254Z,61.04
2023-02-26T12:06:40.509Z,62.03
2023-02-26T12:09:13.085Z,59.58
2023-02-26T12:12:09.222Z,60.25
2023-02-26T12:15:09.025Z,60.28
2023-02-26T12:17:51.990Z,60.01
2023-02-26T12:20:28.410Z,58.61
2023-02-26T12:23:20.344Z,60.01
2023-02-26T12:26:24.296Z,59.24
2023-02-26T12:29:07.425Z,60.46
2023-02-26T12:31:49.872Z,58.19
2023-02-26T12:34:33.300Z,52.63
2023-02-26T12:37:40.252Z,53.67
2023-02-26T12:40:15.846Z,55.83
2023-02-26T12:43:14.414Z,57.16
2023-02-26T12:46:07.820Z,57.92
2023-02-26T12:49:22.488Z,58.00
2023-02-26T12:51:54.877Z,60.40
2023-02-26T12:54:35.428Z,59.21
2023-02-26T12:57:24.751Z,60.23
2023-02-26T13:00:12.951Z,55.63
2023-02-26T13:03:07.132Z,58.95
2023-02-26T13:05:47.696Z,59.64
2023-02-26T13:08:25.861Z,56.77
2023-02-26T13:11:00.310Z,59.07
2023-02-26T13:14:16.766Z,56.84
2023-02-26T13:16:48.976Z,56.85
2023-02-26T13:19:32.024Z,53.29
2023-02-26T13:22:05.065Z,53.61
2023-02-26T13:24:39.622Z,55.27
2023-02-26T13:27:09.683Z,56.41
2023-02-26T13:29:41.657Z,58.60
2023-02-26T13:32:17.486Z,57.62
2023-02-26T13:34:47.925Z,58.01
2023-02-26T13:37:24.488Z,59.37
2023-02-26T13:40:03.232Z,58.41
2023-02-26T13:42:46.602Z,60.95
2023-02-26T13:45:47.301Z,59.69
2023-02-26T13:48:38.534Z,57.49
2023-02-26T13:51:25.458Z,57.11
2023-02-26T13:53:53.701Z,57.23
2023-02-26T13:56:32.259Z,55.91
2023-02-26T13:59:10.749Z,55.85
2023-02-26T14:02:01.610Z,56.22
2023-02-26T14:04:49.333Z,58.60
2023-02-26T14:07:16.540Z,58.74
2023-02-26T14:09:47.858Z,59.78
2023-02-26T14:12:14.402Z,60.37
2023-02-26T14:14:43.341Z,60.71
2023-02-26T14:17:09.925Z,61.15
2023-02-26T14:19:40.873Z,62.08
2023-02-26T14:22:33.034Z,62.34
2023-02-26T14:25:15.685Z,61.57
2023-02-26T14:27:44.404Z,62.90
2023-02-26T14:30:10.872Z,60.55
2023-02-26T14:32:50.389Z,61.46
2023-02-26T14:35:22.211Z,61.28
2023-02-26T14:38:06.681Z,60.70
2023-02-26T14:40:49.535Z,62.08
2023-02-26T14:43:28.533Z,63.14
2023-02-26T14:45:55.174Z,64.58
2023-02-26T14:48:23.821Z,64.47
2023-02-26T14:51:02.368Z,64.10
2023-02-26T14:53:50.601Z,65.07
2023-02-26T14:56:24.151Z,67.04
2023-02-26T14:58:50.604Z,67.78
2023-02-26T15:01:40.149Z,65.58
2023-02-26T15:04:31.365Z,68.13
2023-02-26T15:07:12.264Z,67.49
2023-02-26T15:09:47.986Z,67.37
2023-02-26T15:12:24.760Z,68.92
2023-02-26T15:15:11.165Z,69.95
2023-02-26T15:17:46.181Z,68.90
2023-02-26T15:20:53.109Z,67.54
2023-02-26T15:23:41.101Z,68.03
2023-02-26T15:26:15.601Z,69.96
2023-02-26T15:28:43.158Z,70.24
2023-02-26T15:31:13.538Z,70.54
2023-02-26T15:33:41.056Z,70.60
2023-02-26T15:36:13.060Z,69.29
2023-02-26T15:38:45.847Z,69.61
2023-02-26T15:41:13.429Z,70.31
2023-02-26T15:43:46.045Z,69.84
2023-02-26T15:46:12.739Z,70.49
2023-02-26T15:48:41.781Z,70.08
2023-02-26T15:51:10.375Z,70.00
2023-02-26T15:53:42.467Z,69.12
2023-02-26T15:56:13.665Z,69.19
2023-02-26T15:58:44.093Z,68.96
2023-02-26T16:01:19.345Z,67.49
2023-02-26T16:03:47.025Z,69.45
2023-02-26T16:06:17.864Z,68.84
2023-02-26T16:08:44.408Z,70.10
2023-02-26T16:11:13.033Z,70.61
2023-02-26T16:13:43.468Z,70.33
2023-02-26T16:16:22.464Z,68.84
2023-02-26T16:18:49.186Z,70.33
2023-02-26T16:21:27.582Z,69.02
2023-02-26T16:23:56.861Z,69.13
2023-02-26T16:26:47.838Z,69.09
2023-02-26T16:29:22.905Z,67.83
2023-02-26T16:31:54.146Z,68.88
2023-02-26T16:34:49.657Z,67.69
2023-02-26T16:37:28.474Z,68.39
2023-02-26T16:40:04.801Z,67.46
2023-02-26T16:42:53.030Z,67.24
2023-02-26T16:45:25.521Z,68.53
2023-02-26T16:47:55.330Z,69.19
2023-02-26T16:50:26.457Z,69.65
2023-02-26T16:53:08.029Z,68.29
2023-02-26T16:55:37.627Z,68.94
2023-02-26T16:58:07.545Z,69.22
2023-02-26T17:00:35.783Z,69.88
2023-02-26T17:03:12.587Z,68.16
2023-02-26T17:05:42.331Z,70.02
2023-02-26T17:08:10.849Z,69.96
2023-02-26T17:10:47.064Z,69.22
2023-02-26T17:13:19.903Z,69.53
2023-02-26T17:15:47.613Z,71.00
2023-02-26T17:18:14.262Z,71.28
2023-02-26T17:20:41.092Z,71.04
2023-02-26T17:23:08.809Z,71.13
2023-02-26T17:25:39.807Z,70.53
2023-02-26T17:28:07.330Z,70.80
2023-02-26T17:30:34.069Z,70.59
2023-02-26T17:33:02.354Z,70.37
2023-02-26T17:35:28.989Z,70.58
2023-02-26T17:37:55.579Z,70.33
2023-02-26T17:40:26.021Z,68.96
2023-02-26T17:42:52.894Z,70.05
2023-02-26T17:45:20.636Z,70.19
2023-02-26T17:47:48.138Z,70.39
2023-02-26T17:50:23.747Z,69.08
2023-02-26T17:52:50.511Z,69.55
2023-02-26T17:55:17.064Z,69.81
2023-02-26T17:57:43.668Z,69.41
2023-02-26T18:00:14.092Z,69.79
2023-02-26T18:02:41.725Z,69.25
2023-02-26T18:05:08.903Z,69.44
2023-02-26T18:07:35.713Z,69.35
2023-02-26T18:10:02.264Z,69.38
2023-02-26T18:12:28.843Z,69.98
2023-02-26T18:14:55.520Z,69.62
2023-02-26T18:17:29.269Z,68.90
2023-02-26T18:19:55.756Z,69.94
2023-02-26T18:22:23.473Z,69.95
2023-02-26T18:24:49.962Z,70.44
2023-02-26T18:27:19.903Z,70.45
2023-02-26T18:29:46.653Z,70.22
2023-02-26T18:32:18.906Z,69.96
2023-02-26T18:34:45.814Z,70.60
2023-02-26T18:37:14.640Z,70.65
2023-02-26T18:39:41.423Z,71.06
2023-02-26T18:42:21.436Z,71.04
2023-02-26T18:44:49.261Z,70.30
2023-02-26T18:47:17.198Z,70.35
2023-02-26T18:49:43.619Z,69.40
2023-02-26T18:52:10.914Z,68.80
2023-02-26T18:54:37.739Z,68.72
2023-02-26T18:57:05.764Z,68.98
2023-02-26T18:59:32.922Z,68.96
2023-02-26T19:02:00.345Z,68.34
2023-02-26T19:04:27.375Z,68.36
2023-02-26T19:06:53.974Z,68.50
2023-02-26T19:09:20.546Z,69.13
2023-02-26T19:11:47.131Z,68.53
2023-02-26T19:14:13.677Z,67.79
2023-02-26T19:16:40.359Z,67.57
2023-02-26T19:19:07.763Z,67.05
2023-02-26T19:21:34.297Z,67.40
2023-02-26T19:24:01.162Z,67.02
2023-02-26T19:26:27.886Z,66.58
2023-02-26T19:28:54.388Z,66.49
2023-02-26T19:31:21.045Z,66.83
2023-02-26T19:33:47.589Z,67.27
2023-02-26T19:36:14.180Z,67.17
2023-02-26T19:38:40.769Z,67.05
2023-02-26T19:41:07.231Z,66.61
2023-02-26T19:43:33.817Z,66.73
2023-02-26T19:46:00.477Z,67.21
2023-02-26T19:48:26.982Z,67.13
2023-02-26T19:50:55.479Z,67.22
2023-02-26T19:53:21.986Z,67.66
2023-02-26T19:55:49.456Z,67.65
2023-02-26T19:58:16.598Z,67.78
2023-02-26T20:00:43.158Z,68.06
2023-02-26T20:03:09.790Z,67.53
2023-02-26T20:05:36.964Z,66.92
2023-02-26T20:08:03.992Z,66.73
2023-02-26T20:10:30.598Z,66.90
2023-02-26T20:12:57.950Z,67.04
2023-02-26T20:15:25.142Z,66.92
2023-02-26T20:17:51.746Z,67.11
2023-02-26T20:20:18.495Z,66.96
2023-02-26T20:22:44.982Z,67.12
2023-02-26T20:25:11.562Z,67.30
2023-02-26T20:27:38.162Z,67.35
2023-02-26T20:30:05.911Z,67.43
2023-02-26T20:32:32.449Z,67.34
2023-02-26T20:34:58.983Z,67.52
2023-02-26T20:37:25.494Z,67.55
2023-02-26T20:39:51.980Z,67.58
2023-02-26T20:42:18.462Z,67.55
2023-02-26T20:44:44.971Z,67.85
2023-02-26T20:47:11.581Z,67.71
2023-02-26T20:49:38.092Z,67.76
2023-02-26T20:52:04.880Z,67.81
2023-02-26T20:54:31.499Z,68.05
2023-02-26T20:56:58.066Z,68.09
2023-02-26T20:59:24.692Z,68.28
2023-02-26T21:01:51.327Z,68.25
2023-02-26T21:04:18.675Z,68.32
2023-02-26T21:06:45.369Z,68.61
2023-02-26T21:09:11.862Z,68.35
2023-02-26T21:11:39.089Z,67.67
2023-02-26T21:14:08.380Z,67.25
2023-02-26T21:16:35.709Z,67.53
2023-02-26T21:19:02.729Z,67.48
2023-02-26T21:21:29.413Z,67.48
2023-02-26T21:23:56.127Z,67.29
2023-02-26T21:26:23.921Z,67.49
2023-02-26T21:28:50.844Z,67.09
2023-02-26T21:31:19.980Z,67.36
2023-02-26T21:33:46.596Z,67.76
2023-02-26T21:36:13.307Z,67.83
2023-02-26T21:38:40.589Z,67.82
2023-02-26T21:41:07.385Z,67.91
2023-02-26T21:43:33.912Z,68.19
2023-02-26T21:46:00.482Z,67.97
2023-02-26T21:48:27.031Z,68.04
2023-02-26T21:50:53.539Z,68.29
2023-02-26T21:53:20.080Z,68.15
2023-02-26T21:55:46.809Z,68.53
2023-02-26T21:58:13.394Z,68.70
2023-02-26T22:00:40.083Z,68.99
2023-02-26T22:03:06.757Z,69.13
2023-02-26T22:05:33.437Z,68.98
2023-02-26T22:07:59.935Z,68.67
2023-02-26T22:10:26.549Z,68.60
2023-02-26T22:12:53.027Z,68.94
2023-02-26T22:15:19.700Z,69.55
2023-02-26T22:17:46.368Z,69.95
2023-02-26T22:20:12.954Z,70.15
2023-02-26T22:22:40.212Z,70.10
2023-02-26T22:25:12.390Z,69.93
2023-02-26T22:27:39.132Z,70.37
2023-02-26T22:30:10.023Z,69.60
2023-02-26T22:32:36.547Z,69.36
2023-02-26T22:35:03.370Z,69.55
2023-02-26T22:37:29.874Z,69.50
2023-02-26T22:39:56.449Z,68.98
2023-02-26T22:42:23.256Z,68.75
2023-02-26T22:44:49.831Z,68.75
2023-02-26T22:47:16.319Z,68.25
2023-02-26T22:49:42.841Z,68.49
2023-02-26T22:52:10.392Z,68.07
2023-02-26T22:54:36.916Z,67.70
2023-02-26T22:57:03.563Z,68.37
2023-02-26T22:59:30.101Z,68.65
2023-02-26T23:01:56.586Z,68.85
2023-02-26T23:04:23.144Z,68.98
2023-02-26T23:06:49.692Z,68.97
2023-02-26T23:09:16.389Z,69.12
2023-02-26T23:11:43.208Z,68.77
2023-02-26T23:14:09.742Z,69.02
2023-02-26T23:16:36.278Z,68.26
2023-02-26T23:19:02.902Z,67.93
2023-02-26T23:21:29.941Z,67.37
2023-02-26T23:23:56.935Z,67.56
2023-02-26T23:26:23.596Z,68.04
2023-02-26T23:28:50.525Z,68.04
2023-02-26T23:31:17.183Z,68.15
2023-02-26T23:33:44.114Z,68.33
2023-02-26T23:36:10.748Z,68.75
2023-02-26T23:38:37.429Z,68.72
2023-02-26T23:41:04.217Z,68.68
2023-02-26T23:43:31.141Z,68.88
2023-02-26T23:45:57.712Z,68.72
2023-02-26T23:48:24.316Z,68.39
2023-02-26T23:50:51.703Z,67.97
2023-02-26T23:53:18.271Z,67.59
2023-02-26T23:55:46.273Z,67.33
2023-02-26T23:58:12.889Z,67.24
